Terminal Aerodrome Forecast
Issued by NWS

Home | Current Version | Previous Version | Text Only | Print | Product List | Glossary On
Versions: 1 2 3 4 5 6 7 8 9 10 11 12 13 14 15 16 17 18 19
000
FTUS44 KBMX 301500 AAC
TAFMGM
TAF AMD
KMGM 301546Z 3016/0112 07004KT P6SM OVC024
     FM301730 06004KT P6SM SCT025
     FM010400 00000KT P6SM SKC=

USA.gov is the U.S. government's official web portal to all federal, state and local government web resources and services.